• Join FlightAware (Why Join?)
  • Login
  • US Flag GB Flag 
11:16 EDT


 

Airport Tracker/Info


-or-


 

Live Flight TrackerFlight Track Log ✈ VH-BMX ✈ 22-Jun-2013 ✈ YSCN / CDU - YSCN / CDU

Flight Track Log - Related Links

Times and Time Zones

All times are in EDT time to prevent confusion due to time zone crossing. See the VH-BMX flight status page for this flight to view local times or setup timezone preferences in your user account.

Time Position Orientation Groundspeed Altitude Reporting Facility
EDT Latitude Longitude Course Direction KTS MPH feet Rate Location/Type
21:05 -33.9879 150.8592 68° East 101 116 1,500  Level Aus ATC (RADAR)
21:06 -33.9786 150.8873 68° East 99 114 1,300  Descending Aus ATC (RADAR)
21:07 -33.9688 150.9099 62° Northeast 100 115 1,500 180 Climbing Aus ATC (RADAR)
21:08 -33.9557 150.9332 56° Northeast 100 115 1,600  Climbing Aus ATC (RADAR)
21:08 -33.9630 150.9462 124° Southeast 87 100 1,500 -240 Descending Aus ATC (RADAR)
21:09 -33.9765 150.9518 161° South 68 78 1,300 -180 Descending Aus ATC (RADAR)
21:10 -33.9765 150.9710 90° East 82 94 1,300 120 Level Aus ATC (RADAR)
21:10 -33.9630 150.9747 13° North 90 104 1,500  Climbing Aus ATC (RADAR)
21:11 -33.9589 150.9477 281° West 88 101 1,300  Descending Aus ATC (RADAR)
21:12 -33.9769 150.9449 187° South 82 94 1,500 60 Climbing Aus ATC (RADAR)
21:13 -33.9788 150.9672 96° East 97 112 1,400 -120 Descending Aus ATC (RADAR)
21:13 -33.9628 150.9751 22° Northeast 112 129 1,400  Level Aus ATC (RADAR)
21:14 -33.9652 150.9487 264° West 94 108 1,400 -60 Level Aus ATC (RADAR)
21:15 -33.9695 150.9651 108° East 95 109 1,300  Descending Aus ATC (RADAR)
21:16 -33.9717 150.9512 259° West 85 98 1,400 60 Climbing Aus ATC (RADAR)
21:17 -33.9774 150.9672 113° Southeast 88 101 1,400  Level Aus ATC (RADAR)
21:18 -33.9610 150.9592 338° Northwest 93 107 1,400 -60 Level Aus ATC (RADAR)
21:19 -33.9579 150.9337 278° West 105 121 1,300 -180 Descending Aus ATC (RADAR)
21:22 -33.9991 150.8088 248° West -420 Descending Aus ATC (Calculated)
21:24 -34.0402 150.6872 238° Southwest  Level FlightAware Approximate